sensor_id;sensor_type;location;lat;lon;timestamp;temperature;humidity
51619;DHT22;38518;53.164;5.430;2023-02-28T00:01:21;5.10;84.70
51619;DHT22;38518;53.164;5.430;2023-02-28T00:03:47;5.00;85.00
51619;DHT22;38518;53.164;5.430;2023-02-28T00:06:13;3.50;94.30
51619;DHT22;38518;53.164;5.430;2023-02-28T00:08:39;5.20;94.50
51619;DHT22;38518;53.164;5.430;2023-02-28T00:11:07;4.80;94.20
51619;DHT22;38518;53.164;5.430;2023-02-28T00:13:36;4.90;89.40
51619;DHT22;38518;53.164;5.430;2023-02-28T00:16:05;6.00;92.20
51619;DHT22;38518;53.164;5.430;2023-02-28T00:18:32;4.80;89.10
51619;DHT22;38518;53.164;5.430;2023-02-28T00:20:59;3.40;91.20
51619;DHT22;38518;53.164;5.430;2023-02-28T00:23:25;5.50;92.00
51619;DHT22;38518;53.164;5.430;2023-02-28T00:25:52;4.70;90.70
51619;DHT22;38518;53.164;5.430;2023-02-28T00:28:18;5.00;95.00
51619;DHT22;38518;53.164;5.430;2023-02-28T00:30:44;4.70;93.80
51619;DHT22;38518;53.164;5.430;2023-02-28T00:33:10;4.80;95.80
51619;DHT22;38518;53.164;5.430;2023-02-28T00:35:35;4.80;97.20
51619;DHT22;38518;53.164;5.430;2023-02-28T00:38:01;4.60;98.50
51619;DHT22;38518;53.164;5.430;2023-02-28T00:40:28;4.60;99.80
51619;DHT22;38518;53.164;5.430;2023-02-28T00:42:54;4.70;99.90
51619;DHT22;38518;53.164;5.430;2023-02-28T00:45:20;4.60;99.90
51619;DHT22;38518;53.164;5.430;2023-02-28T00:47:45;4.80;99.90
51619;DHT22;38518;53.164;5.430;2023-02-28T00:50:18;5.10;99.90
51619;DHT22;38518;53.164;5.430;2023-02-28T00:52:44;4.40;99.90
51619;DHT22;38518;53.164;5.430;2023-02-28T00:55:10;4.70;99.90
51619;DHT22;38518;53.164;5.430;2023-02-28T00:57:36;4.60;99.90
51619;DHT22;38518;53.164;5.430;2023-02-28T01:00:04;4.60;99.90
51619;DHT22;38518;53.164;5.430;2023-02-28T01:02:30;4.60;99.90
51619;DHT22;38518;53.164;5.430;2023-02-28T01:04:55;4.70;99.90
51619;DHT22;38518;53.164;5.430;2023-02-28T01:07:22;4.60;99.90
51619;DHT22;38518;53.164;5.430;2023-02-28T01:09:48;5.10;99.90
51619;DHT22;38518;53.164;5.430;2023-02-28T01:12:14;4.70;99.90
51619;DHT22;38518;53.164;5.430;2023-02-28T01:14:40;4.60;99.90
51619;DHT22;38518;53.164;5.430;2023-02-28T01:17:06;5.20;99.90
51619;DHT22;38518;53.164;5.430;2023-02-28T01:19:32;4.80;99.90
51619;DHT22;38518;53.164;5.430;2023-02-28T01:22:01;4.60;99.90
51619;DHT22;38518;53.164;5.430;2023-02-28T01:24:26;4.60;99.90
51619;DHT22;38518;53.164;5.430;2023-02-28T01:26:52;5.40;99.90
51619;DHT22;38518;53.164;5.430;2023-02-28T01:29:18;4.90;99.90
51619;DHT22;38518;53.164;5.430;2023-02-28T01:31:43;4.50;99.90
51619;DHT22;38518;53.164;5.430;2023-02-28T01:34:09;5.10;99.90
51619;DHT22;38518;53.164;5.430;2023-02-28T01:36:35;5.40;99.90
51619;DHT22;38518;53.164;5.430;2023-02-28T01:39:02;5.60;99.90
51619;DHT22;38518;53.164;5.430;2023-02-28T01:41:32;4.60;99.90
51619;DHT22;38518;53.164;5.430;2023-02-28T01:44:54;4.80;99.90
51619;DHT22;38518;53.164;5.430;2023-02-28T01:46:53;4.60;99.90
51619;DHT22;38518;53.164;5.430;2023-02-28T01:49:19;5.70;99.90
51619;DHT22;38518;53.164;5.430;2023-02-28T01:51:50;4.60;99.90
51619;DHT22;38518;53.164;5.430;2023-02-28T01:54:29;5.50;99.90
51619;DHT22;38518;53.164;5.430;2023-02-28T01:57:01;5.40;99.90
51619;DHT22;38518;53.164;5.430;2023-02-28T01:59:42;5.40;99.90
51619;DHT22;38518;53.164;5.430;2023-02-28T02:02:13;4.90;99.90
51619;DHT22;38518;53.164;5.430;2023-02-28T02:04:49;4.60;99.90
51619;DHT22;38518;53.164;5.430;2023-02-28T02:07:16;4.70;99.90
51619;DHT22;38518;53.164;5.430;2023-02-28T02:09:42;4.90;99.90
51619;DHT22;38518;53.164;5.430;2023-02-28T02:15:24;4.60;99.90
51619;DHT22;38518;53.164;5.430;2023-02-28T02:17:53;4.30;99.90
51619;DHT22;38518;53.164;5.430;2023-02-28T02:37:27;4.80;99.90
51619;DHT22;38518;53.164;5.430;2023-02-28T02:40:16;5.30;99.90
51619;DHT22;38518;53.164;5.430;2023-02-28T02:43:08;4.80;99.90
51619;DHT22;38518;53.164;5.430;2023-02-28T02:45:42;4.80;99.90
51619;DHT22;38518;53.164;5.430;2023-02-28T02:48:12;5.10;99.90
51619;DHT22;38518;53.164;5.430;2023-02-28T02:50:55;4.80;99.90
51619;DHT22;38518;53.164;5.430;2023-02-28T02:53:29;4.90;99.90
51619;DHT22;38518;53.164;5.430;2023-02-28T02:55:58;4.90;99.90
51619;DHT22;38518;53.164;5.430;2023-02-28T02:58:29;5.00;99.90
51619;DHT22;38518;53.164;5.430;2023-02-28T03:00:59;5.00;99.90
51619;DHT22;38518;53.164;5.430;2023-02-28T03:03:27;5.00;99.90
51619;DHT22;38518;53.164;5.430;2023-02-28T03:05:58;4.90;99.90
51619;DHT22;38518;53.164;5.430;2023-02-28T03:08:25;4.90;99.90
51619;DHT22;38518;53.164;5.430;2023-02-28T03:10:57;5.00;99.90
51619;DHT22;38518;53.164;5.430;2023-02-28T03:13:50;5.00;99.90
51619;DHT22;38518;53.164;5.430;2023-02-28T03:16:28;4.90;99.90
51619;DHT22;38518;53.164;5.430;2023-02-28T03:27:32;3.00;99.90
51619;DHT22;38518;53.164;5.430;2023-02-28T03:30:23;5.00;99.90
51619;DHT22;38518;53.164;5.430;2023-02-28T03:33:01;5.00;99.90
51619;DHT22;38518;53.164;5.430;2023-02-28T03:35:43;4.90;99.90
51619;DHT22;38518;53.164;5.430;2023-02-28T03:40:58;5.00;99.90
51619;DHT22;38518;53.164;5.430;2023-02-28T03:43:31;5.00;99.90
51619;DHT22;38518;53.164;5.430;2023-02-28T03:46:04;5.00;99.90
51619;DHT22;38518;53.164;5.430;2023-02-28T03:48:46;5.00;99.90
51619;DHT22;38518;53.164;5.430;2023-02-28T03:51:17;5.00;99.90
51619;DHT22;38518;53.164;5.430;2023-02-28T03:53:59;5.40;99.90
51619;DHT22;38518;53.164;5.430;2023-02-28T03:56:37;5.00;99.90
51619;DHT22;38518;53.164;5.430;2023-02-28T03:59:13;5.00;99.90
51619;DHT22;38518;53.164;5.430;2023-02-28T04:01:45;7.00;99.90
51619;DHT22;38518;53.164;5.430;2023-02-28T04:04:11;5.60;99.90
51619;DHT22;38518;53.164;5.430;2023-02-28T04:06:38;5.20;99.90
51619;DHT22;38518;53.164;5.430;2023-02-28T04:09:06;6.10;99.90
51619;DHT22;38518;53.164;5.430;2023-02-28T04:11:38;5.80;99.90
51619;DHT22;38518;53.164;5.430;2023-02-28T04:14:06;5.00;99.90
51619;DHT22;38518;53.164;5.430;2023-02-28T04:16:34;5.00;99.90
51619;DHT22;38518;53.164;5.430;2023-02-28T04:19:02;5.50;99.90
51619;DHT22;38518;53.164;5.430;2023-02-28T04:21:29;5.30;99.90
51619;DHT22;38518;53.164;5.430;2023-02-28T04:23:55;5.50;99.90
51619;DHT22;38518;53.164;5.430;2023-02-28T04:26:21;5.40;99.90
51619;DHT22;38518;53.164;5.430;2023-02-28T04:28:46;6.20;99.90
51619;DHT22;38518;53.164;5.430;2023-02-28T04:31:12;5.30;99.90
51619;DHT22;38518;53.164;5.430;2023-02-28T04:33:38;5.20;99.90
51619;DHT22;38518;53.164;5.430;2023-02-28T04:36:06;5.40;99.90
51619;DHT22;38518;53.164;5.430;2023-02-28T04:38:35;5.30;99.90
51619;DHT22;38518;53.164;5.430;2023-02-28T04:41:01;5.40;99.90
51619;DHT22;38518;53.164;5.430;2023-02-28T04:43:27;6.00;99.90
51619;DHT22;38518;53.164;5.430;2023-02-28T04:45:55;5.30;99.90
51619;DHT22;38518;53.164;5.430;2023-02-28T04:48:26;5.40;99.90
51619;DHT22;38518;53.164;5.430;2023-02-28T04:50:52;4.20;99.90
51619;DHT22;38518;53.164;5.430;2023-02-28T04:53:19;6.10;99.90
51619;DHT22;38518;53.164;5.430;2023-02-28T04:55:45;5.80;99.90
51619;DHT22;38518;53.164;5.430;2023-02-28T04:58:12;5.50;99.90
51619;DHT22;38518;53.164;5.430;2023-02-28T05:00:38;5.50;99.90
51619;DHT22;38518;53.164;5.430;2023-02-28T05:03:04;5.80;99.90
51619;DHT22;38518;53.164;5.430;2023-02-28T05:05:30;5.20;99.90
51619;DHT22;38518;53.164;5.430;2023-02-28T05:07:55;5.20;99.90
51619;DHT22;38518;53.164;5.430;2023-02-28T05:10:24;5.90;99.90
51619;DHT22;38518;53.164;5.430;2023-02-28T05:12:50;5.80;99.90
51619;DHT22;38518;53.164;5.430;2023-02-28T05:15:16;5.20;99.90
51619;DHT22;38518;53.164;5.430;2023-02-28T05:17:42;5.40;99.90
51619;DHT22;38518;53.164;5.430;2023-02-28T05:20:09;5.20;99.90
51619;DHT22;38518;53.164;5.430;2023-02-28T05:22:39;5.40;99.90
51619;DHT22;38518;53.164;5.430;2023-02-28T05:25:06;5.40;99.90
51619;DHT22;38518;53.164;5.430;2023-02-28T05:27:32;5.50;99.90
51619;DHT22;38518;53.164;5.430;2023-02-28T05:29:58;5.10;99.90
51619;DHT22;38518;53.164;5.430;2023-02-28T05:32:24;5.40;99.90
51619;DHT22;38518;53.164;5.430;2023-02-28T05:34:50;6.40;99.90
51619;DHT22;38518;53.164;5.430;2023-02-28T05:37:16;5.30;99.90
51619;DHT22;38518;53.164;5.430;2023-02-28T05:39:43;5.50;99.90
51619;DHT22;38518;53.164;5.430;2023-02-28T05:42:09;5.40;99.90
51619;DHT22;38518;53.164;5.430;2023-02-28T05:44:35;6.20;99.90
51619;DHT22;38518;53.164;5.430;2023-02-28T05:47:02;6.30;99.90
51619;DHT22;38518;53.164;5.430;2023-02-28T05:49:28;5.60;99.90
51619;DHT22;38518;53.164;5.430;2023-02-28T05:51:54;5.40;99.90
51619;DHT22;38518;53.164;5.430;2023-02-28T05:54:19;6.50;99.90
51619;DHT22;38518;53.164;5.430;2023-02-28T05:56:45;6.00;99.90
51619;DHT22;38518;53.164;5.430;2023-02-28T05:59:12;5.60;99.90
51619;DHT22;38518;53.164;5.430;2023-02-28T06:01:43;5.60;99.90
51619;DHT22;38518;53.164;5.430;2023-02-28T06:04:14;5.30;99.90
51619;DHT22;38518;53.164;5.430;2023-02-28T06:06:47;5.60;99.90
51619;DHT22;38518;53.164;5.430;2023-02-28T06:09:13;5.40;99.90
51619;DHT22;38518;53.164;5.430;2023-02-28T06:11:39;5.40;99.90
51619;DHT22;38518;53.164;5.430;2023-02-28T06:14:05;6.30;99.90
51619;DHT22;38518;53.164;5.430;2023-02-28T06:16:34;5.50;99.90
51619;DHT22;38518;53.164;5.430;2023-02-28T06:19:02;5.40;99.90
51619;DHT22;38518;53.164;5.430;2023-02-28T06:21:28;5.60;99.90
51619;DHT22;38518;53.164;5.430;2023-02-28T06:23:55;5.40;99.90
51619;DHT22;38518;53.164;5.430;2023-02-28T06:26:21;5.50;99.90
51619;DHT22;38518;53.164;5.430;2023-02-28T06:28:47;5.60;99.90
51619;DHT22;38518;53.164;5.430;2023-02-28T06:31:15;5.50;99.90
51619;DHT22;38518;53.164;5.430;2023-02-28T06:33:42;5.90;99.90
51619;DHT22;38518;53.164;5.430;2023-02-28T06:36:10;6.10;99.90
51619;DHT22;38518;53.164;5.430;2023-02-28T06:38:36;6.30;99.90
51619;DHT22;38518;53.164;5.430;2023-02-28T06:41:02;6.40;99.90
51619;DHT22;38518;53.164;5.430;2023-02-28T06:43:31;5.50;99.90
51619;DHT22;38518;53.164;5.430;2023-02-28T06:45:59;5.70;99.90
51619;DHT22;38518;53.164;5.430;2023-02-28T06:48:26;5.50;99.90
51619;DHT22;38518;53.164;5.430;2023-02-28T06:50:52;6.50;99.90
51619;DHT22;38518;53.164;5.430;2023-02-28T06:53:18;5.90;99.90
51619;DHT22;38518;53.164;5.430;2023-02-28T06:55:44;6.70;99.90
51619;DHT22;38518;53.164;5.430;2023-02-28T06:58:09;5.50;99.90
51619;DHT22;38518;53.164;5.430;2023-02-28T07:00:44;5.60;99.90
51619;DHT22;38518;53.164;5.430;2023-02-28T07:03:12;6.10;99.90
51619;DHT22;38518;53.164;5.430;2023-02-28T07:05:39;5.60;99.90
51619;DHT22;38518;53.164;5.430;2023-02-28T07:08:05;5.80;99.90
51619;DHT22;38518;53.164;5.430;2023-02-28T07:10:33;5.60;99.90
51619;DHT22;38518;53.164;5.430;2023-02-28T07:12:59;5.60;99.90
51619;DHT22;38518;53.164;5.430;2023-02-28T07:15:25;5.80;99.90
51619;DHT22;38518;53.164;5.430;2023-02-28T07:17:51;6.00;99.90
51619;DHT22;38518;53.164;5.430;2023-02-28T07:20:17;6.70;99.90
51619;DHT22;38518;53.164;5.430;2023-02-28T07:22:43;5.70;99.90
51619;DHT22;38518;53.164;5.430;2023-02-28T07:25:09;5.80;99.90
51619;DHT22;38518;53.164;5.430;2023-02-28T07:27:35;5.70;99.90
51619;DHT22;38518;53.164;5.430;2023-02-28T07:30:00;6.50;99.90
51619;DHT22;38518;53.164;5.430;2023-02-28T07:32:27;5.70;99.90
51619;DHT22;38518;53.164;5.430;2023-02-28T07:34:53;6.40;99.90
51619;DHT22;38518;53.164;5.430;2023-02-28T07:37:19;5.40;99.90
51619;DHT22;38518;53.164;5.430;2023-02-28T07:39:45;5.50;99.90
51619;DHT22;38518;53.164;5.430;2023-02-28T07:42:12;4.90;99.90
51619;DHT22;38518;53.164;5.430;2023-02-28T07:44:39;5.50;99.90
51619;DHT22;38518;53.164;5.430;2023-02-28T07:47:09;4.70;99.90
51619;DHT22;38518;53.164;5.430;2023-02-28T07:49:36;4.50;99.90
51619;DHT22;38518;53.164;5.430;2023-02-28T07:52:03;6.10;99.90
51619;DHT22;38518;53.164;5.430;2023-02-28T07:54:30;5.10;99.90
51619;DHT22;38518;53.164;5.430;2023-02-28T07:56:56;4.40;99.90
51619;DHT22;38518;53.164;5.430;2023-02-28T07:59:24;4.10;99.90
51619;DHT22;38518;53.164;5.430;2023-02-28T08:01:50;4.00;99.90
51619;DHT22;38518;53.164;5.430;2023-02-28T08:04:17;4.10;99.90
51619;DHT22;38518;53.164;5.430;2023-02-28T08:06:43;5.50;99.90
51619;DHT22;38518;53.164;5.430;2023-02-28T08:09:09;4.20;99.90
51619;DHT22;38518;53.164;5.430;2023-02-28T08:11:35;4.10;99.90
51619;DHT22;38518;53.164;5.430;2023-02-28T08:14:01;4.50;99.90
51619;DHT22;38518;53.164;5.430;2023-02-28T08:16:27;4.40;99.90
51619;DHT22;38518;53.164;5.430;2023-02-28T08:18:53;4.50;99.90
51619;DHT22;38518;53.164;5.430;2023-02-28T08:21:19;4.10;99.90
51619;DHT22;38518;53.164;5.430;2023-02-28T08:23:49;4.00;99.90
51619;DHT22;38518;53.164;5.430;2023-02-28T08:26:16;3.80;99.90
51619;DHT22;38518;53.164;5.430;2023-02-28T08:28:42;5.30;99.90
51619;DHT22;38518;53.164;5.430;2023-02-28T08:31:09;3.90;99.90
51619;DHT22;38518;53.164;5.430;2023-02-28T08:33:35;5.50;99.90
51619;DHT22;38518;53.164;5.430;2023-02-28T08:36:01;5.60;99.90
51619;DHT22;38518;53.164;5.430;2023-02-28T08:38:27;4.50;99.90
51619;DHT22;38518;53.164;5.430;2023-02-28T08:41:01;4.00;99.90
51619;DHT22;38518;53.164;5.430;2023-02-28T08:43:28;4.90;99.90
51619;DHT22;38518;53.164;5.430;2023-02-28T08:45:55;4.00;99.90
51619;DHT22;38518;53.164;5.430;2023-02-28T08:48:23;4.00;99.90
51619;DHT22;38518;53.164;5.430;2023-02-28T08:51:00;3.90;99.90
51619;DHT22;38518;53.164;5.430;2023-02-28T08:53:26;4.20;99.90
51619;DHT22;38518;53.164;5.430;2023-02-28T08:56:00;3.90;99.90
51619;DHT22;38518;53.164;5.430;2023-02-28T08:58:27;3.80;99.90
51619;DHT22;38518;53.164;5.430;2023-02-28T09:00:53;3.30;99.90
51619;DHT22;38518;53.164;5.430;2023-02-28T09:03:19;5.20;99.90
51619;DHT22;38518;53.164;5.430;2023-02-28T09:06:11;4.30;99.90
51619;DHT22;38518;53.164;5.430;2023-02-28T09:08:38;4.20;99.90
51619;DHT22;38518;53.164;5.430;2023-02-28T09:11:05;4.50;99.90
51619;DHT22;38518;53.164;5.430;2023-02-28T09:13:31;3.40;99.90
51619;DHT22;38518;53.164;5.430;2023-02-28T09:16:02;3.60;99.90
51619;DHT22;38518;53.164;5.430;2023-02-28T09:18:29;3.60;99.90
51619;DHT22;38518;53.164;5.430;2023-02-28T09:20:55;3.80;99.90
51619;DHT22;38518;53.164;5.430;2023-02-28T09:23:21;4.60;99.90
51619;DHT22;38518;53.164;5.430;2023-02-28T09:25:52;3.70;99.90
51619;DHT22;38518;53.164;5.430;2023-02-28T09:28:19;3.60;99.90
51619;DHT22;38518;53.164;5.430;2023-02-28T09:30:47;4.30;99.90
51619;DHT22;38518;53.164;5.430;2023-02-28T09:33:14;4.10;99.90
51619;DHT22;38518;53.164;5.430;2023-02-28T09:35:40;3.80;99.90
51619;DHT22;38518;53.164;5.430;2023-02-28T09:38:06;3.70;99.90
51619;DHT22;38518;53.164;5.430;2023-02-28T09:40:56;3.90;99.90
51619;DHT22;38518;53.164;5.430;2023-02-28T09:43:24;3.60;99.90
51619;DHT22;38518;53.164;5.430;2023-02-28T09:46:12;4.70;99.90
51619;DHT22;38518;53.164;5.430;2023-02-28T09:48:43;4.00;99.90
51619;DHT22;38518;53.164;5.430;2023-02-28T09:53:58;3.70;99.90
51619;DHT22;38518;53.164;5.430;2023-02-28T09:56:31;5.10;99.90
51619;DHT22;38518;53.164;5.430;2023-02-28T10:06:51;4.90;99.90
51619;DHT22;38518;53.164;5.430;2023-02-28T10:09:21;5.10;99.90
51619;DHT22;38518;53.164;5.430;2023-02-28T10:11:51;4.00;99.90
51619;DHT22;38518;53.164;5.430;2023-02-28T10:14:29;6.50;99.90
51619;DHT22;38518;53.164;5.430;2023-02-28T10:17:19;5.10;99.90
51619;DHT22;38518;53.164;5.430;2023-02-28T10:20:00;5.20;99.90
51619;DHT22;38518;53.164;5.430;2023-02-28T10:22:52;5.20;99.90
51619;DHT22;38518;53.164;5.430;2023-02-28T10:25:24;5.20;99.90
51619;DHT22;38518;53.164;5.430;2023-02-28T10:27:59;5.30;99.90
51619;DHT22;38518;53.164;5.430;2023-02-28T10:30:26;5.40;99.90
51619;DHT22;38518;53.164;5.430;2023-02-28T10:32:53;5.50;99.90
51619;DHT22;38518;53.164;5.430;2023-02-28T10:35:24;4.70;95.40
51619;DHT22;38518;53.164;5.430;2023-02-28T10:37:54;5.60;95.00
51619;DHT22;38518;53.164;5.430;2023-02-28T10:42:59;6.00;97.70
51619;DHT22;38518;53.164;5.430;2023-02-28T10:45:25;6.80;91.20
51619;DHT22;38518;53.164;5.430;2023-02-28T10:47:58;7.50;29.40
51619;DHT22;38518;53.164;5.430;2023-02-28T10:53:50;9.10;1.00
51619;DHT22;38518;53.164;5.430;2023-02-28T10:56:25;9.30;1.00
51619;DHT22;38518;53.164;5.430;2023-02-28T11:01:44;10.30;1.00
51619;DHT22;38518;53.164;5.430;2023-02-28T11:07:18;9.50;1.00
51619;DHT22;38518;53.164;5.430;2023-02-28T11:09:48;10.90;1.00
51619;DHT22;38518;53.164;5.430;2023-02-28T11:12:38;10.90;1.00
51619;DHT22;38518;53.164;5.430;2023-02-28T11:15:18;12.00;1.00
51619;DHT22;38518;53.164;5.430;2023-02-28T11:20:38;12.50;1.00
51619;DHT22;38518;53.164;5.430;2023-02-28T11:23:11;12.70;1.00
51619;DHT22;38518;53.164;5.430;2023-02-28T11:25:38;13.30;1.00
51619;DHT22;38518;53.164;5.430;2023-02-28T11:28:23;14.10;1.00
51619;DHT22;38518;53.164;5.430;2023-02-28T11:31:17;15.10;1.00
51619;DHT22;38518;53.164;5.430;2023-02-28T11:33:53;15.50;1.00
51619;DHT22;38518;53.164;5.430;2023-02-28T11:36:28;14.70;1.00
51619;DHT22;38518;53.164;5.430;2023-02-28T11:38:59;13.90;1.00
51619;DHT22;38518;53.164;5.430;2023-02-28T11:41:40;13.50;1.00
51619;DHT22;38518;53.164;5.430;2023-02-28T11:47:38;11.90;1.00
51619;DHT22;38518;53.164;5.430;2023-02-28T11:58:53;12.40;1.00
51619;DHT22;38518;53.164;5.430;2023-02-28T12:07:23;11.70;1.00
51619;DHT22;38518;53.164;5.430;2023-02-28T12:18:26;11.80;1.00
51619;DHT22;38518;53.164;5.430;2023-02-28T12:21:03;12.00;1.00
51619;DHT22;38518;53.164;5.430;2023-02-28T12:29:04;12.30;1.00
51619;DHT22;38518;53.164;5.430;2023-02-28T12:31:42;12.30;1.00
51619;DHT22;38518;53.164;5.430;2023-02-28T12:34:19;11.80;1.00
51619;DHT22;38518;53.164;5.430;2023-02-28T12:36:47;11.60;1.00
51619;DHT22;38518;53.164;5.430;2023-02-28T12:39:29;11.80;1.00
51619;DHT22;38518;53.164;5.430;2023-02-28T12:42:36;11.80;1.00
51619;DHT22;38518;53.164;5.430;2023-02-28T12:45:19;12.30;1.00
51619;DHT22;38518;53.164;5.430;2023-02-28T12:47:50;12.40;1.00
51619;DHT22;38518;53.164;5.430;2023-02-28T12:50:16;12.80;1.00
51619;DHT22;38518;53.164;5.430;2023-02-28T12:55:43;13.90;1.00
51619;DHT22;38518;53.164;5.430;2023-02-28T12:58:22;14.90;1.00
51619;DHT22;38518;53.164;5.430;2023-02-28T13:09:09;17.90;1.00
51619;DHT22;38518;53.164;5.430;2023-02-28T13:11:43;18.00;1.00
51619;DHT22;38518;53.164;5.430;2023-02-28T13:14:37;18.30;1.00
51619;DHT22;38518;53.164;5.430;2023-02-28T13:19:58;18.40;1.00
51619;DHT22;38518;53.164;5.430;2023-02-28T13:24:56;18.50;1.00
51619;DHT22;38518;53.164;5.430;2023-02-28T13:27:33;18.70;1.00
51619;DHT22;38518;53.164;5.430;2023-02-28T13:30:00;18.50;1.00
51619;DHT22;38518;53.164;5.430;2023-02-28T13:32:35;18.50;1.00
51619;DHT22;38518;53.164;5.430;2023-02-28T13:39:57;18.40;1.00
51619;DHT22;38518;53.164;5.430;2023-02-28T13:47:39;18.70;1.00
51619;DHT22;38518;53.164;5.430;2023-02-28T13:55:48;18.50;1.00
51619;DHT22;38518;53.164;5.430;2023-02-28T14:01:53;18.80;1.00
51619;DHT22;38518;53.164;5.430;2023-02-28T14:07:04;18.50;1.00
51619;DHT22;38518;53.164;5.430;2023-02-28T14:11:55;18.50;1.00
51619;DHT22;38518;53.164;5.430;2023-02-28T14:17:14;18.80;1.00
51619;DHT22;38518;53.164;5.430;2023-02-28T14:19:44;18.70;1.00
51619;DHT22;38518;53.164;5.430;2023-02-28T14:22:54;18.90;1.00
51619;DHT22;38518;53.164;5.430;2023-02-28T14:25:36;19.10;1.00
51619;DHT22;38518;53.164;5.430;2023-02-28T14:31:39;18.80;1.00
51619;DHT22;38518;53.164;5.430;2023-02-28T14:36:43;18.80;1.00
51619;DHT22;38518;53.164;5.430;2023-02-28T14:39:16;18.80;1.00
51619;DHT22;38518;53.164;5.430;2023-02-28T14:41:43;18.90;1.00
51619;DHT22;38518;53.164;5.430;2023-02-28T14:44:28;18.80;1.00
51619;DHT22;38518;53.164;5.430;2023-02-28T14:46:56;19.00;1.00
51619;DHT22;38518;53.164;5.430;2023-02-28T14:49:32;19.10;1.00
51619;DHT22;38518;53.164;5.430;2023-02-28T14:52:22;18.80;1.00
51619;DHT22;38518;53.164;5.430;2023-02-28T14:55:11;18.90;1.00
51619;DHT22;38518;53.164;5.430;2023-02-28T14:57:58;18.60;1.00
51619;DHT22;38518;53.164;5.430;2023-02-28T15:02:53;18.30;1.00
51619;DHT22;38518;53.164;5.430;2023-02-28T15:08:12;18.20;1.00
51619;DHT22;38518;53.164;5.430;2023-02-28T15:10:44;18.10;1.00
51619;DHT22;38518;53.164;5.430;2023-02-28T15:13:15;17.90;1.00
51619;DHT22;38518;53.164;5.430;2023-02-28T15:21:15;17.60;1.00
51619;DHT22;38518;53.164;5.430;2023-02-28T15:23:45;17.60;1.00
51619;DHT22;38518;53.164;5.430;2023-02-28T15:26:22;17.20;1.00
51619;DHT22;38518;53.164;5.430;2023-02-28T15:29:02;17.00;1.00
51619;DHT22;38518;53.164;5.430;2023-02-28T15:31:38;16.90;1.00
51619;DHT22;38518;53.164;5.430;2023-02-28T15:34:13;16.70;1.00
51619;DHT22;38518;53.164;5.430;2023-02-28T15:36:41;16.80;1.00
51619;DHT22;38518;53.164;5.430;2023-02-28T15:39:21;16.70;1.00
51619;DHT22;38518;53.164;5.430;2023-02-28T15:41:47;16.60;1.00
51619;DHT22;38518;53.164;5.430;2023-02-28T15:44:33;16.50;1.00
51619;DHT22;38518;53.164;5.430;2023-02-28T15:47:24;16.30;1.00
51619;DHT22;38518;53.164;5.430;2023-02-28T15:49:51;16.10;1.00
51619;DHT22;38518;53.164;5.430;2023-02-28T15:52:28;15.80;1.00
51619;DHT22;38518;53.164;5.430;2023-02-28T15:54:57;15.60;1.00
51619;DHT22;38518;53.164;5.430;2023-02-28T15:57:29;15.30;1.00
51619;DHT22;38518;53.164;5.430;2023-02-28T16:00:03;15.20;1.00
51619;DHT22;38518;53.164;5.430;2023-02-28T16:02:36;15.00;1.00
51619;DHT22;38518;53.164;5.430;2023-02-28T16:05:22;14.80;1.00
51619;DHT22;38518;53.164;5.430;2023-02-28T16:07:55;14.30;1.00
51619;DHT22;38518;53.164;5.430;2023-02-28T16:10:27;13.10;1.00
51619;DHT22;38518;53.164;5.430;2023-02-28T16:12:55;12.20;1.00
51619;DHT22;38518;53.164;5.430;2023-02-28T16:15:27;11.10;1.00
51619;DHT22;38518;53.164;5.430;2023-02-28T16:17:55;10.30;1.00
51619;DHT22;38518;53.164;5.430;2023-02-28T16:20:29;9.70;1.00
51619;DHT22;38518;53.164;5.430;2023-02-28T16:22:55;9.30;1.00
51619;DHT22;38518;53.164;5.430;2023-02-28T16:25:39;9.10;1.00
51619;DHT22;38518;53.164;5.430;2023-02-28T16:28:15;8.60;1.00
51619;DHT22;38518;53.164;5.430;2023-02-28T16:30:43;8.50;1.00
51619;DHT22;38518;53.164;5.430;2023-02-28T16:33:09;8.30;1.00
51619;DHT22;38518;53.164;5.430;2023-02-28T16:35:35;7.90;1.00
51619;DHT22;38518;53.164;5.430;2023-02-28T16:38:01;7.70;1.00
51619;DHT22;38518;53.164;5.430;2023-02-28T16:46:11;7.10;1.00
51619;DHT22;38518;53.164;5.430;2023-02-28T16:48:38;7.40;1.00
51619;DHT22;38518;53.164;5.430;2023-02-28T16:51:10;7.00;1.00
51619;DHT22;38518;53.164;5.430;2023-02-28T16:53:36;7.10;1.00
51619;DHT22;38518;53.164;5.430;2023-02-28T16:56:02;7.00;1.00
51619;DHT22;38518;53.164;5.430;2023-02-28T16:58:35;6.40;1.00
51619;DHT22;38518;53.164;5.430;2023-02-28T17:01:08;6.50;1.00
51619;DHT22;38518;53.164;5.430;2023-02-28T17:03:43;9.10;1.00
51619;DHT22;38518;53.164;5.430;2023-02-28T17:06:21;4.90;1.00
51619;DHT22;38518;53.164;5.430;2023-02-28T17:08:57;6.20;1.00
51619;DHT22;38518;53.164;5.430;2023-02-28T17:11:25;5.60;14.80
51619;DHT22;38518;53.164;5.430;2023-02-28T17:13:51;6.20;31.00
51619;DHT22;38518;53.164;5.430;2023-02-28T17:16:33;6.30;42.40
51619;DHT22;38518;53.164;5.430;2023-02-28T17:19:04;6.20;56.50
51619;DHT22;38518;53.164;5.430;2023-02-28T17:21:31;6.50;59.00
51619;DHT22;38518;53.164;5.430;2023-02-28T17:23:59;6.10;56.70
51619;DHT22;38518;53.164;5.430;2023-02-28T17:26:28;5.90;69.60
51619;DHT22;38518;53.164;5.430;2023-02-28T17:28:56;5.60;1.00
51619;DHT22;38518;53.164;5.430;2023-02-28T17:31:24;6.30;1.00
51619;DHT22;38518;53.164;5.430;2023-02-28T17:33:50;5.70;1.00
51619;DHT22;38518;53.164;5.430;2023-02-28T17:36:21;5.20;1.00
51619;DHT22;38518;53.164;5.430;2023-02-28T17:38:52;5.90;1.00
51619;DHT22;38518;53.164;5.430;2023-02-28T17:41:18;5.40;1.00
51619;DHT22;38518;53.164;5.430;2023-02-28T17:43:44;5.20;1.00
51619;DHT22;38518;53.164;5.430;2023-02-28T17:46:20;5.50;1.00
51619;DHT22;38518;53.164;5.430;2023-02-28T17:48:55;6.40;1.00
51619;DHT22;38518;53.164;5.430;2023-02-28T17:51:24;5.30;1.00
51619;DHT22;38518;53.164;5.430;2023-02-28T17:53:52;5.50;1.00
51619;DHT22;38518;53.164;5.430;2023-02-28T17:56:31;5.10;1.00
51619;DHT22;38518;53.164;5.430;2023-02-28T18:02:50;5.70;1.00
51619;DHT22;38518;53.164;5.430;2023-02-28T18:05:17;6.00;1.00
51619;DHT22;38518;53.164;5.430;2023-02-28T18:11:36;5.30;1.00
51619;DHT22;38518;53.164;5.430;2023-02-28T18:14:10;4.60;1.00
51619;DHT22;38518;53.164;5.430;2023-02-28T18:16:42;4.80;27.20
51619;DHT22;38518;53.164;5.430;2023-02-28T18:25:55;5.00;52.30
51619;DHT22;38518;53.164;5.430;2023-02-28T18:28:35;4.80;80.80
51619;DHT22;38518;53.164;5.430;2023-02-28T18:31:15;4.80;74.20
51619;DHT22;38518;53.164;5.430;2023-02-28T18:33:53;4.80;93.20
51619;DHT22;38518;53.164;5.430;2023-02-28T18:36:36;4.70;91.60
51619;DHT22;38518;53.164;5.430;2023-02-28T20:51:00;3.20;99.90
51619;DHT22;38518;53.164;5.430;2023-02-28T20:53:29;3.10;64.60
51619;DHT22;38518;53.164;5.430;2023-02-28T20:55:56;5.30;41.60
51619;DHT22;38518;53.164;5.430;2023-02-28T20:58:24;3.70;38.00
51619;DHT22;38518;53.164;5.430;2023-02-28T21:00:50;4.20;41.00
51619;DHT22;38518;53.164;5.430;2023-02-28T21:03:23;3.50;38.90
51619;DHT22;38518;53.164;5.430;2023-02-28T21:05:49;2.40;58.00
51619;DHT22;38518;53.164;5.430;2023-02-28T21:08:14;3.40;56.30
51619;DHT22;38518;53.164;5.430;2023-02-28T21:10:42;2.80;51.90